Accueil
METAR-TAF:

METAR-TAF

Aéroports :

Brize Norton, Angleterre

latitude: 51-45N, longitude: 001-35W, altitude: 88 m

Observation

Le bulletin a été fait il y a 55 minutes, à 00:50 UTC
Vent 9 kt de sud/sud-ouest
Température 12°C
Humidité 67%
Pression 1017 hPa
Visibilité 10 km ou plus
pas de nuages en-dessous de 1500 mètres et pas de cumulonimbus.

METAR: EGVN 170050Z 21009KT CAVOK 12/06 Q1017 NOSIG

Heure: 02:45 (01:45 UTC)

Prévision

Le bulletin a été fait il y a 3 heures et 27 minutes, à 22:18 UTC
Prévision valable du 17 à 00 UTC au 17 à 24 UTC
Vent 12 kt de sud-ouest
Visibilité 10 km ou plus
Quelques nuages à une hauteur de 3500 ft
Probabilité 40% :
Temporairement
du 17 à 16 UTC au 17 à 24 UTC
Visibilité: 6000 m
pluie faible

TAF: EGVN 162218Z 1700/1724 22012KT 9999 FEW035 PROB40 TEMPO 1716/1724 6000 -RA

Observations et prévisions météorologiques de plus de 4000 aéroports (messages METAR et TAF).

Les stations disponibles sont représentées par des disques jaunes et rouges sur la carte.

Passer la souris dessus pour voir le nom de la station.

Cliquer dessus pour voir les observations et prévisions météorologiques.

Pour changer de carte: cliquez sur les boutons verts avec une croix noire pour zoomer, sur le bouton vert avec un tiret pour effectuer un zoom arrière, ou sur les flèches vertes pour les cartes adjacentes.


METAR-TAF: